createdAt,value
2019-03-03T00:00:53.188Z,28.45
2019-03-03T00:03:22.095Z,26.37
2019-03-03T00:05:51.007Z,27.15
2019-03-03T00:08:19.870Z,27.27
2019-03-03T00:10:48.923Z,26.15
2019-03-03T00:13:17.836Z,26.17
2019-03-03T00:15:47.046Z,30.10
2019-03-03T00:18:15.956Z,32.10
2019-03-03T00:20:44.862Z,24.12
2019-03-03T00:23:13.770Z,28.83
2019-03-03T00:25:42.604Z,34.50
2019-03-03T00:28:11.694Z,31.57
2019-03-03T00:30:40.596Z,29.82
2019-03-03T00:33:09.505Z,34.15
2019-03-03T00:35:38.333Z,28.55
2019-03-03T00:38:11.819Z,33.23
2019-03-03T00:40:51.370Z,30.00
2019-03-03T00:43:38.964Z,32.33
2019-03-03T00:46:09.553Z,28.75
2019-03-03T00:48:39.998Z,29.32
2019-03-03T00:51:20.906Z,30.77
2019-03-03T00:53:51.528Z,26.23
2019-03-03T00:56:21.967Z,18.20
2019-03-03T00:58:52.514Z,33.40
2019-03-03T01:01:25.929Z,29.90
2019-03-03T01:03:56.371Z,32.50
2019-03-03T01:06:26.913Z,30.27
2019-03-03T01:09:00.118Z,26.55
2019-03-03T01:11:48.676Z,28.83
2019-03-03T01:14:28.230Z,27.98
2019-03-03T01:16:58.874Z,30.20
2019-03-03T01:19:44.587Z,33.15
2019-03-03T01:22:20.844Z,29.05
2019-03-03T01:24:54.359Z,35.50
2019-03-03T01:27:23.469Z,33.40
2019-03-03T01:29:52.375Z,30.05
2019-03-03T01:32:21.284Z,30.40
2019-03-03T01:34:50.196Z,30.70
2019-03-03T01:37:19.099Z,31.20
2019-03-03T01:39:48.008Z,33.55
2019-03-03T01:42:16.914Z,30.85
2019-03-03T01:44:45.823Z,29.12
2019-03-03T01:47:14.737Z,30.60
2019-03-03T01:49:43.640Z,29.35
2019-03-03T01:52:12.554Z,32.95
2019-03-03T01:54:41.437Z,32.05
2019-03-03T01:57:10.364Z,34.53
2019-03-03T01:59:39.271Z,30.08
2019-03-03T02:02:08.280Z,32.10
2019-03-03T02:04:37.189Z,29.75
2019-03-03T02:07:06.197Z,28.57
2019-03-03T02:09:35.105Z,30.35
2019-03-03T02:12:04.015Z,29.32
2019-03-03T02:14:33.025Z,29.10
2019-03-03T02:17:01.931Z,29.12
2019-03-03T02:19:31.252Z,29.98
2019-03-03T02:22:00.155Z,27.55
2019-03-03T02:24:28.984Z,32.73
2019-03-03T02:26:57.974Z,31.05
2019-03-03T02:29:26.880Z,31.52
2019-03-03T02:31:55.890Z,28.70
2019-03-03T02:34:24.799Z,30.62
2019-03-03T02:36:53.708Z,29.05
2019-03-03T02:39:22.614Z,32.23
2019-03-03T02:41:51.506Z,29.55
2019-03-03T02:44:20.445Z,30.43
2019-03-03T02:46:49.442Z,29.95
2019-03-03T02:49:18.347Z,28.65
2019-03-03T02:51:47.181Z,31.37
2019-03-03T02:54:16.164Z,31.25
2019-03-03T02:56:45.071Z,31.35
2019-03-03T02:59:13.979Z,27.95
2019-03-03T03:01:44.421Z,31.90
2019-03-03T03:04:13.329Z,29.37
2019-03-03T03:06:43.773Z,26.37
2019-03-03T03:09:17.434Z,29.10
2019-03-03T03:11:48.035Z,38.90
2019-03-03T03:14:18.586Z,32.40
2019-03-03T03:17:07.138Z,35.83
2019-03-03T03:19:37.583Z,28.87
2019-03-03T03:22:13.662Z,28.45
2019-03-03T03:24:44.306Z,35.17
2019-03-03T03:27:23.856Z,33.00
2019-03-03T03:30:03.403Z,38.33
2019-03-03T03:32:39.680Z,31.73
2019-03-03T03:35:16.468Z,30.25
2019-03-03T03:37:58.728Z,33.60
2019-03-03T03:40:45.803Z,36.08
2019-03-03T03:43:32.928Z,35.65
2019-03-03T03:46:09.613Z,34.20
2019-03-03T03:48:56.742Z,36.60
2019-03-03T03:51:36.188Z,32.05
2019-03-03T03:54:06.736Z,43.40
2019-03-03T03:56:46.081Z,41.08
2019-03-03T03:59:31.980Z,35.17
2019-03-03T04:02:14.701Z,33.70
2019-03-03T04:04:54.046Z,36.63
2019-03-03T04:07:31.142Z,37.95
2019-03-03T04:10:04.553Z,38.13
2019-03-03T04:12:41.033Z,35.40
2019-03-03T04:15:11.682Z,36.58
2019-03-03T04:17:45.226Z,31.62
2019-03-03T04:20:22.193Z,31.00
2019-03-03T04:22:58.464Z,39.58
2019-03-03T04:25:29.009Z,32.80
2019-03-03T04:28:02.627Z,37.08
2019-03-03T04:30:39.207Z,36.08
2019-03-03T04:33:09.755Z,33.50
2019-03-03T04:35:46.137Z,38.35
2019-03-03T04:38:16.676Z,31.52
2019-03-03T04:40:47.119Z,37.53
2019-03-03T04:43:20.633Z,32.67
2019-03-03T04:45:53.838Z,41.55
2019-03-03T04:48:24.384Z,33.15
2019-03-03T04:50:54.827Z,39.75
2019-03-03T04:53:28.035Z,35.78
2019-03-03T04:55:58.476Z,37.78
2019-03-03T04:58:35.060Z,40.90
2019-03-03T05:01:08.061Z,30.40
2019-03-03T05:03:41.372Z,32.78
2019-03-03T05:06:14.475Z,35.52
2019-03-03T05:08:44.923Z,33.83
2019-03-03T05:11:33.272Z,37.48
2019-03-03T05:14:03.713Z,34.80
2019-03-03T05:16:45.924Z,34.88
2019-03-03T05:19:15.138Z,36.20
2019-03-03T05:21:44.047Z,35.63
2019-03-03T05:24:12.954Z,32.65
2019-03-03T05:26:41.862Z,32.35
2019-03-03T05:29:10.769Z,34.25
2019-03-03T05:31:39.677Z,31.10
2019-03-03T05:34:08.586Z,35.73
2019-03-03T05:36:37.477Z,33.85
2019-03-03T05:39:06.896Z,41.45
2019-03-03T05:41:35.821Z,35.35
2019-03-03T05:44:04.727Z,35.03
2019-03-03T05:46:33.618Z,39.50
2019-03-03T05:49:02.546Z,37.90
2019-03-03T05:51:31.451Z,41.77
2019-03-03T05:54:00.359Z,36.40
2019-03-03T05:56:29.269Z,41.13
2019-03-03T05:58:58.175Z,41.08
2019-03-03T06:01:27.184Z,40.90
2019-03-03T06:03:56.049Z,41.15
2019-03-03T06:06:25.001Z,41.05
2019-03-03T06:08:53.909Z,41.92
2019-03-03T06:11:23.022Z,39.13
2019-03-03T06:13:51.929Z,40.73
2019-03-03T06:16:20.921Z,41.68
2019-03-03T06:18:49.847Z,45.55
2019-03-03T06:21:18.754Z,40.80
2019-03-03T06:23:47.664Z,44.85
2019-03-03T06:26:16.571Z,37.48
2019-03-03T06:28:45.478Z,45.95
2019-03-03T06:31:14.309Z,38.80
2019-03-03T06:33:43.293Z,38.95
2019-03-03T06:36:12.201Z,44.03
2019-03-03T06:38:41.108Z,40.52
2019-03-03T06:41:10.017Z,37.95
2019-03-03T06:43:38.924Z,45.67
2019-03-03T06:46:07.939Z,37.83
2019-03-03T06:48:36.945Z,40.70
2019-03-03T06:51:05.851Z,42.75
2019-03-03T06:53:34.862Z,44.15
2019-03-03T06:56:03.773Z,36.13
2019-03-03T06:58:32.683Z,45.78
2019-03-03T07:01:01.689Z,42.10
2019-03-03T07:03:30.697Z,44.35
2019-03-03T07:05:59.605Z,40.40
2019-03-03T07:08:28.514Z,47.00
2019-03-03T07:10:57.424Z,41.85
2019-03-03T07:13:26.329Z,43.90
2019-03-03T07:15:55.238Z,51.80
2019-03-03T07:18:24.146Z,44.45
2019-03-03T07:20:53.052Z,43.48
2019-03-03T07:23:21.964Z,51.00
2019-03-03T07:25:50.869Z,45.58
2019-03-03T07:28:19.878Z,50.85
2019-03-03T07:30:48.872Z,42.08
2019-03-03T07:33:19.741Z,50.12
2019-03-03T07:35:48.651Z,52.23
2019-03-03T07:38:17.557Z,41.37
2019-03-03T07:40:46.469Z,46.42
2019-03-03T07:43:15.372Z,43.08
2019-03-03T07:45:44.282Z,47.45
2019-03-03T07:48:13.186Z,42.55
2019-03-03T07:50:42.097Z,41.63
2019-03-03T07:53:11.106Z,40.83
2019-03-03T07:55:40.115Z,38.63
2019-03-03T07:58:09.026Z,42.98
2019-03-03T08:00:38.035Z,42.15
2019-03-03T08:03:07.043Z,41.50
2019-03-03T08:05:35.960Z,36.83
2019-03-03T08:08:06.292Z,35.73
2019-03-03T08:10:35.204Z,36.53
2019-03-03T08:13:09.180Z,41.63
2019-03-03T08:15:34.655Z,52.05
2019-03-03T08:18:03.561Z,37.38
2019-03-03T08:20:32.572Z,47.80
2019-03-03T08:23:01.479Z,36.70
2019-03-03T08:25:30.497Z,35.40
2019-03-03T08:27:59.396Z,36.25
2019-03-03T08:30:28.306Z,38.13
2019-03-03T08:32:57.301Z,42.48
2019-03-03T08:35:31.550Z,44.50
2019-03-03T08:38:00.454Z,45.17
2019-03-03T08:40:29.465Z,47.95
2019-03-03T08:43:04.199Z,43.68
2019-03-03T08:45:43.655Z,45.25
2019-03-03T08:48:30.676Z,62.80
2019-03-03T08:51:01.324Z,52.15
2019-03-03T08:53:31.872Z,42.30
2019-03-03T08:56:15.953Z,42.05
2019-03-03T08:58:46.263Z,50.35
2019-03-03T09:01:19.572Z,48.23
2019-03-03T09:04:07.823Z,40.83
2019-03-03T09:06:38.235Z,42.40
2019-03-03T09:09:25.703Z,48.55
2019-03-03T09:11:56.246Z,47.17
2019-03-03T09:14:26.786Z,41.25
2019-03-03T09:16:57.333Z,39.58
2019-03-03T09:19:43.949Z,48.35
2019-03-03T09:22:20.633Z,47.00
2019-03-03T09:24:57.225Z,49.93
2019-03-03T09:27:27.663Z,46.95
2019-03-03T09:30:01.175Z,46.45
2019-03-03T09:32:31.622Z,45.10
2019-03-03T09:35:18.538Z,55.65
2019-03-03T09:37:51.842Z,52.30
2019-03-03T09:40:25.355Z,51.95
2019-03-03T09:43:08.089Z,46.95
2019-03-03T09:45:44.564Z,53.28
2019-03-03T09:48:15.005Z,54.03
2019-03-03T09:50:45.420Z,52.17
2019-03-03T09:53:34.212Z,60.28
2019-03-03T09:56:07.722Z,60.73
2019-03-03T09:58:54.335Z,64.82
2019-03-03T10:01:27.643Z,54.67
2019-03-03T10:03:58.290Z,68.40
2019-03-03T10:06:28.701Z,67.92
2019-03-03T10:09:01.941Z,64.55
2019-03-03T10:11:47.224Z,62.25
2019-03-03T10:14:17.771Z,62.43
2019-03-03T10:16:48.210Z,71.10
2019-03-03T10:19:18.654Z,70.42
2019-03-03T10:21:49.095Z,77.12
2019-03-03T10:24:25.380Z,75.85
2019-03-03T10:27:01.958Z,69.20
2019-03-03T10:29:34.836Z,75.62
2019-03-03T10:32:21.572Z,67.75
2019-03-03T10:34:52.116Z,75.45
2019-03-03T10:37:38.729Z,85.12
2019-03-03T10:40:22.888Z,88.85
2019-03-03T10:43:11.041Z,84.83
2019-03-03T10:45:56.522Z,78.80
2019-03-03T10:48:30.037Z,86.45
2019-03-03T10:51:17.019Z,84.20
2019-03-03T10:54:03.774Z,87.50
2019-03-03T10:56:36.961Z,71.53
2019-03-03T10:59:10.286Z,87.15
2019-03-03T11:01:46.563Z,80.67
2019-03-03T11:04:33.593Z,88.15
2019-03-03T11:07:04.133Z,84.47
2019-03-03T11:09:40.719Z,73.30
2019-03-03T11:12:21.590Z,77.27
2019-03-03T11:14:54.806Z,83.05
2019-03-03T11:17:28.317Z,80.97
2019-03-03T11:20:16.873Z,82.60
2019-03-03T11:22:53.355Z,79.27
2019-03-03T11:25:26.568Z,76.02
2019-03-03T11:28:03.132Z,77.47
2019-03-03T11:30:38.569Z,73.97
2019-03-03T11:33:11.200Z,77.30
2019-03-03T11:35:50.848Z,79.72
2019-03-03T11:38:37.365Z,86.63
2019-03-03T11:41:07.909Z,82.50
2019-03-03T11:43:53.802Z,76.92
2019-03-03T11:46:30.645Z,81.42
2019-03-03T11:49:01.216Z,89.00
2019-03-03T11:51:37.514Z,110.92
2019-03-03T11:54:08.061Z,90.45
2019-03-03T11:56:53.649Z,82.25
2019-03-03T11:59:42.415Z,83.00
2019-03-03T12:02:18.380Z,83.15
2019-03-03T12:05:07.133Z,86.20
2019-03-03T12:07:44.544Z,90.65
2019-03-03T12:10:34.171Z,89.47
2019-03-03T12:13:16.747Z,83.62
2019-03-03T12:15:53.227Z,90.77
2019-03-03T12:18:24.771Z,88.22
2019-03-03T12:21:13.342Z,83.00
2019-03-03T12:23:43.790Z,78.02
2019-03-03T12:26:20.073Z,85.35
2019-03-03T12:28:59.527Z,94.30
2019-03-03T12:31:48.387Z,91.40
2019-03-03T12:34:21.899Z,84.80
2019-03-03T12:37:04.520Z,77.25
2019-03-03T12:39:37.835Z,74.20
2019-03-03T12:42:08.377Z,79.55
2019-03-03T12:44:38.820Z,71.90
2019-03-03T12:47:12.133Z,66.50
2019-03-03T12:49:51.575Z,67.50
2019-03-03T12:52:24.676Z,76.95
2019-03-03T12:54:55.125Z,73.62
2019-03-03T12:57:27.106Z,62.85
2019-03-03T13:00:06.860Z,68.95
2019-03-03T13:02:49.479Z,63.15
2019-03-03T13:05:19.979Z,70.87
2019-03-03T13:08:02.853Z,65.57
2019-03-03T13:10:45.176Z,65.12
2019-03-03T13:13:15.609Z,71.15
2019-03-03T13:16:03.141Z,69.00
2019-03-03T13:18:36.655Z,61.85
2019-03-03T13:21:12.728Z,74.75
2019-03-03T13:23:46.958Z,78.85
2019-03-03T13:26:23.130Z,71.75
2019-03-03T13:28:53.675Z,70.95
2019-03-03T13:31:24.225Z,75.25
2019-03-03T13:34:00.499Z,65.40
2019-03-03T13:36:33.911Z,64.55
2019-03-03T13:39:04.456Z,67.65
2019-03-03T13:41:34.898Z,57.60
2019-03-03T13:44:03.804Z,65.62
2019-03-03T13:46:32.814Z,54.85
2019-03-03T13:49:01.704Z,67.03
2019-03-03T13:51:30.835Z,69.03
2019-03-03T13:53:59.743Z,68.30
2019-03-03T13:56:28.752Z,55.65
2019-03-03T13:58:57.662Z,63.85
2019-03-03T14:01:26.772Z,69.47
2019-03-03T14:03:55.682Z,65.70
2019-03-03T14:06:24.776Z,64.20
2019-03-03T14:08:53.702Z,61.13
2019-03-03T14:11:28.947Z,67.70
2019-03-03T14:13:57.967Z,69.75
2019-03-03T14:16:26.905Z,61.40
2019-03-03T14:18:55.987Z,65.35
2019-03-03T14:21:24.893Z,66.10
2019-03-03T14:23:53.801Z,71.95
2019-03-03T14:26:22.707Z,70.65
2019-03-03T14:28:51.615Z,75.08
2019-03-03T14:31:20.627Z,69.85
2019-03-03T14:33:49.534Z,70.12
2019-03-03T14:36:18.443Z,67.82
2019-03-03T14:38:48.354Z,72.60
2019-03-03T14:41:17.280Z,71.28
2019-03-03T14:43:46.188Z,81.53
2019-03-03T14:46:15.079Z,71.10
2019-03-03T14:48:44.004Z,75.22
2019-03-03T14:51:12.911Z,76.25
2019-03-03T14:53:41.819Z,71.22
2019-03-03T14:56:10.727Z,74.22
2019-03-03T14:58:39.636Z,77.67
2019-03-03T15:01:08.529Z,82.08
2019-03-03T15:03:37.553Z,84.22
2019-03-03T15:06:06.464Z,89.07
2019-03-03T15:08:35.369Z,89.92
2019-03-03T15:11:04.380Z,98.90
2019-03-03T15:13:33.389Z,104.78
2019-03-03T15:16:02.398Z,110.65
2019-03-03T15:18:31.307Z,116.45
2019-03-03T15:21:00.317Z,110.60
2019-03-03T15:23:30.145Z,117.85
2019-03-03T15:25:59.054Z,114.50
2019-03-03T15:28:27.945Z,113.57
2019-03-03T15:30:56.870Z,121.55
2019-03-03T15:33:25.885Z,117.20
2019-03-03T15:35:54.889Z,115.62
2019-03-03T15:38:23.797Z,118.67
2019-03-03T15:40:52.813Z,114.82
2019-03-03T15:43:21.716Z,112.00
2019-03-03T15:45:50.624Z,102.27
2019-03-03T15:48:19.534Z,101.85
2019-03-03T15:50:48.698Z,114.30
2019-03-03T15:53:17.653Z,112.40
2019-03-03T15:55:46.549Z,107.78
2019-03-03T15:58:15.573Z,97.05
2019-03-03T16:00:44.480Z,108.92
2019-03-03T16:03:13.390Z,97.95
2019-03-03T16:05:42.387Z,113.25
2019-03-03T16:08:11.307Z,104.10
2019-03-03T16:10:40.214Z,118.40
2019-03-03T16:13:09.220Z,112.95
2019-03-03T16:15:38.130Z,112.83
2019-03-03T16:18:07.040Z,102.47
2019-03-03T16:20:36.055Z,107.00
2019-03-03T16:23:04.891Z,127.05
2019-03-03T16:25:33.868Z,119.22
2019-03-03T16:28:02.705Z,119.72
2019-03-03T16:30:31.681Z,112.83
2019-03-03T16:33:00.588Z,114.55
2019-03-03T16:35:29.501Z,111.88
2019-03-03T16:37:58.506Z,115.80
2019-03-03T16:40:28.542Z,121.37
2019-03-03T16:42:57.447Z,115.47
2019-03-03T16:45:26.388Z,118.55
2019-03-03T16:47:55.569Z,118.05
2019-03-03T16:50:24.810Z,117.77
2019-03-03T16:52:53.693Z,151.10
2019-03-03T16:55:22.984Z,135.82
2019-03-03T16:57:51.901Z,124.45
2019-03-03T17:00:29.832Z,138.68
2019-03-03T17:02:58.652Z,130.07
2019-03-03T17:05:28.756Z,125.62
2019-03-03T17:07:57.669Z,131.90
2019-03-03T17:10:26.588Z,129.93
2019-03-03T17:12:55.496Z,126.38
2019-03-03T17:15:26.661Z,124.65
2019-03-03T17:20:23.745Z,120.70
2019-03-03T17:22:52.662Z,129.65
2019-03-03T17:25:23.732Z,139.55
2019-03-03T17:30:25.000Z,152.35
2019-03-03T17:32:53.923Z,145.70
2019-03-03T17:35:22.830Z,147.93
2019-03-03T17:37:51.737Z,162.43
2019-03-03T17:40:28.347Z,179.50
2019-03-03T17:42:57.336Z,157.82
2019-03-03T17:45:26.649Z,162.75
2019-03-03T17:47:55.658Z,159.37
2019-03-03T17:50:26.595Z,166.88
2019-03-03T17:52:55.727Z,174.07
2019-03-03T17:55:24.738Z,178.82
2019-03-03T17:57:53.645Z,185.57
2019-03-03T18:00:26.033Z,166.85
2019-03-03T18:02:55.078Z,169.40
2019-03-03T18:05:24.136Z,171.13
2019-03-03T18:07:53.282Z,175.25
2019-03-03T18:10:22.690Z,176.10
2019-03-03T18:12:51.704Z,174.93
2019-03-03T18:15:20.607Z,169.55
2019-03-03T18:17:50.579Z,187.57
2019-03-03T18:20:22.922Z,170.12
2019-03-03T18:22:51.865Z,178.95
2019-03-03T18:25:21.477Z,194.82
2019-03-03T18:27:50.569Z,185.35
2019-03-03T18:30:27.564Z,188.15
2019-03-03T18:32:56.672Z,193.47
2019-03-03T18:35:27.489Z,185.30
2019-03-03T18:37:56.235Z,188.30
2019-03-03T18:40:26.088Z,188.10
2019-03-03T18:42:55.272Z,175.95
2019-03-03T18:45:24.489Z,171.82
2019-03-03T18:47:53.603Z,173.35
2019-03-03T18:50:29.875Z,177.62
2019-03-03T18:53:00.037Z,174.47
2019-03-03T18:55:29.330Z,157.22
2019-03-03T18:57:58.339Z,146.10
2019-03-03T19:00:28.679Z,142.40
2019-03-03T19:02:58.337Z,149.65
2019-03-03T19:05:27.825Z,153.55
2019-03-03T19:07:56.732Z,146.02
2019-03-03T19:10:31.258Z,138.80
2019-03-03T19:13:00.281Z,135.72
2019-03-03T19:15:29.391Z,126.40
2019-03-03T19:17:58.300Z,118.87
2019-03-03T19:20:27.207Z,122.40
2019-03-03T19:22:56.116Z,127.45
2019-03-03T19:25:25.023Z,127.30
2019-03-03T19:27:53.931Z,118.05
2019-03-03T19:30:28.672Z,117.45
2019-03-03T19:33:03.294Z,113.75
2019-03-03T19:35:32.220Z,118.75
2019-03-03T19:38:01.128Z,118.57
2019-03-03T19:40:30.035Z,112.10
2019-03-03T19:42:59.047Z,111.10
2019-03-03T19:45:31.126Z,111.90
2019-03-03T19:48:00.037Z,111.77
2019-03-03T19:50:28.942Z,103.55
2019-03-03T19:52:57.955Z,101.82
2019-03-03T19:55:26.861Z,100.58
2019-03-03T19:57:55.774Z,101.67
2019-03-03T20:00:35.080Z,97.45
2019-03-03T20:02:58.690Z,88.80
2019-03-03T20:05:27.692Z,81.00
2019-03-03T20:07:56.618Z,81.55
2019-03-03T20:10:25.528Z,84.05
2019-03-03T20:12:55.663Z,86.70
2019-03-03T20:15:26.311Z,80.92
2019-03-03T20:17:55.221Z,85.47
2019-03-03T20:20:24.126Z,73.35
2019-03-03T20:22:53.134Z,78.62
2019-03-03T20:25:22.028Z,74.00
2019-03-03T20:27:50.954Z,78.65
2019-03-03T20:30:23.852Z,66.85
2019-03-03T20:32:52.859Z,67.50
2019-03-03T20:35:21.896Z,75.15
2019-03-03T20:37:51.020Z,68.85
2019-03-03T20:40:22.347Z,69.45
2019-03-03T20:42:51.457Z,66.62
2019-03-03T20:45:28.534Z,69.55
2019-03-03T20:47:57.665Z,64.42
2019-03-03T20:50:26.689Z,61.90
2019-03-03T20:52:55.713Z,65.70
2019-03-03T20:55:29.304Z,63.80
2019-03-03T20:57:58.213Z,72.10
2019-03-03T21:00:31.298Z,64.05
2019-03-03T21:03:01.922Z,65.62
2019-03-03T21:05:30.867Z,62.23
2019-03-03T21:07:59.776Z,61.90
2019-03-03T21:10:30.938Z,68.50
2019-03-03T21:15:28.080Z,62.45
2019-03-03T21:17:57.043Z,49.73
2019-03-03T21:20:25.955Z,59.65
2019-03-03T21:22:54.851Z,51.88
2019-03-03T21:25:23.774Z,53.75
2019-03-03T21:27:52.677Z,52.10
2019-03-03T21:30:28.532Z,55.03
2019-03-03T21:32:57.554Z,43.80
2019-03-03T21:35:26.462Z,52.93
2019-03-03T21:37:55.470Z,41.88
2019-03-03T21:40:25.304Z,44.35
2019-03-03T21:42:54.313Z,34.95
2019-03-03T21:45:30.057Z,48.58
2019-03-03T21:47:59.084Z,41.00
2019-03-03T21:50:29.430Z,36.63
2019-03-03T21:52:58.332Z,40.60
2019-03-03T21:55:27.239Z,44.58
2019-03-03T21:57:56.148Z,35.83
2019-03-03T22:00:34.165Z,34.18
2019-03-03T22:03:03.072Z,44.60
2019-03-03T22:05:32.038Z,45.50
2019-03-03T22:08:00.999Z,41.60
2019-03-03T22:10:30.104Z,36.98
2019-03-03T22:13:00.852Z,43.10
2019-03-03T22:15:29.758Z,36.38
2019-03-03T22:17:58.596Z,42.23
2019-03-03T22:20:27.558Z,39.05
2019-03-03T22:22:56.585Z,41.35
2019-03-03T22:25:25.597Z,35.03
2019-03-03T22:27:54.503Z,41.28
2019-03-03T22:30:23.615Z,39.03
2019-03-03T22:32:52.523Z,39.92
2019-03-03T22:35:21.422Z,38.15
2019-03-03T22:37:50.343Z,36.98
2019-03-03T22:40:21.603Z,30.57
2019-03-03T22:42:50.554Z,40.75
2019-03-03T22:45:19.727Z,31.30
2019-03-03T22:47:48.634Z,28.23
2019-03-03T22:50:18.662Z,31.75
2019-03-03T22:52:47.560Z,22.05
2019-03-03T22:55:20.660Z,31.40
2019-03-03T22:57:49.671Z,28.60
2019-03-03T23:00:46.841Z,28.52
2019-03-03T23:03:21.891Z,30.15
2019-03-03T23:05:53.767Z,34.08
2019-03-03T23:08:25.645Z,31.20
2019-03-03T23:11:00.288Z,29.63
2019-03-03T23:13:38.091Z,29.37
2019-03-03T23:16:24.910Z,25.65
2019-03-03T23:19:12.037Z,29.55
2019-03-03T23:21:49.641Z,29.42
2019-03-03T23:24:56.933Z,23.05
2019-03-03T23:27:25.835Z,30.57
2019-03-03T23:29:54.745Z,31.35
2019-03-03T23:32:23.651Z,29.30
2019-03-03T23:34:53.379Z,29.52
2019-03-03T23:37:22.285Z,25.25
2019-03-03T23:39:51.340Z,26.30
2019-03-03T23:42:20.228Z,29.52
2019-03-03T23:44:49.212Z,29.05
2019-03-03T23:47:18.123Z,24.25
2019-03-03T23:49:47.235Z,22.27
2019-03-03T23:52:16.141Z,24.52
2019-03-03T23:54:45.049Z,24.05
2019-03-03T23:57:13.971Z,24.72
2019-03-03T23:59:42.864Z,23.70
